• Join FlightAware (Why Join?)
  • Login
  • US Flag 
12:27PM EDT


 

Airport Tracker/Info


-or-


 

Live Flight TrackerFlight Track Log ✈ UAL1583 ✈ 17-Nov-2013 ✈ KEWR - KSFO

Flight Track Log - Related Links

Times and Time Zones

All times are in EST time to prevent confusion due to time zone crossing. See the UAL1583 flight status page for this flight to view local times or setup timezone preferences in your user account.

Time Position Orientation Groundspeed Altitude Reporting Facility
EST Latitude Longitude Course Direction KTS MPH feet Rate Location/Type
02:47PM 40.6333 -74.2000 246° West 221 254 2,100  Level New York TRACON
02:49PM 40.6167 -74.3000 258° West 257 296 4,700 2,700 Climbing New York TRACON
02:50PM 40.6333 -74.4000 282° West 260 299 7,800 2,760 Climbing New York TRACON
02:51PM 40.7916 -74.8329 237° Southwest  Level Estimated
02:51PM 40.6333 -74.4833 270° West 269 310 10,100  Level New York TRACON
02:52PM 40.8110 -74.9660 237° Southwest  Level Estimated
02:52PM 40.6536 -74.6689 278° West 306 352 12,700  Level New York Center
02:53PM 40.8302 -75.0991 246° West  Level Estimated
02:53PM 40.6653 -74.8119 276° West 348 400 14,500  Level New York Center
02:54PM 40.6731 -74.9464 274° West 373 429 16,600 1,800 Climbing New York Center
02:55PM 40.6767 -75.0836 272° West 378 435 18,200 1,620 Climbing New York Center
02:56PM 40.6242 -75.2058 241° Southwest 372 428 19,900 1,620 Climbing New York Center
02:57PM 40.5694 -75.3308 240° Southwest 383 441 21,500 1,500 Climbing New York Center
02:58PM 40.5103 -75.4553 238° Southwest 395 455 23,000 1,440 Climbing New York Center
02:59PM 40.4531 -75.5850 240° Southwest 408 470 24,400 1,200 Climbing New York Center
03:00PM 40.3911 -75.7197 239° Southwest 419 482 25,400 900 Climbing New York Center
03:01PM 40.3314 -75.8517 239° Southwest 419 482 26,300 840 Climbing New York Center
03:02PM 40.2744 -75.9617 236° Southwest 435 501 27,100 1,020 Climbing New York Center
03:03PM 40.2100 -76.0956 238° Southwest 448 516 28,400 1,380 Climbing New York Center
03:04PM 40.1383 -76.2503 239° Southwest 441 507 29,900 1,320 Climbing New York Center
03:05PM 40.0781 -76.3811 239° Southwest 428 493 31,100 1,320 Climbing New York Center
03:06PM 40.0219 -76.5094 240° Southwest 417 480 32,600 1,440 Climbing New York Center
03:07PM 39.9636 -76.6319 238° Southwest 412 474 34,000 660 Climbing New York Center
03:08PM 39.9100 -76.7494 239° Southwest 402 463 34,000  Level New York Center
03:09PM 39.8561 -76.8636 238° Southwest 390 449 34,000  Level New York Center
03:10PM 39.8019 -76.9808 239° Southwest 385 443 34,000  Level New York Center
03:11PM 39.7694 -77.0411 235° Southwest 368 423 34,000  Level Washington Center
03:12PM 39.7161 -77.1561 239° Southwest 361 415 34,000  Level Washington Center
03:13PM 39.6625 -77.2708 239° Southwest 366 421 34,000  Level Washington Center
03:14PM 39.6067 -77.3853 238° Southwest 371 427 34,000  Level Washington Center
03:15PM 39.5528 -77.4997 239° Southwest 371 427 34,000  Level Washington Center
03:16PM 39.4989 -77.6139 239° Southwest 377 434 34,000  Level Washington Center
03:17PM 39.4447 -77.7281 238° Southwest 383 441 34,000  Level Washington Center
03:18PM 39.3883 -77.8444 238° Southwest 383 441 34,000  Level Washington Center
03:19PM 39.3381 -77.9664 242° Southwest 383 441 34,000  Level Washington Center
03:20PM 39.2919 -78.0883 244° Southwest 378 435 34,000  Level Washington Center
03:21PM 39.2433 -78.2100 243° Southwest 378 435 34,000  Level Washington Center
03:22PM 39.1928 -78.3367 243° Southwest 388 447 34,000  Level Washington Center
03:23PM 39.1419 -78.4578 242° Southwest 388 447 34,000  Level Washington Center
03:24PM 39.1075 -78.5928 252° West 388 447 34,000  Level Washington Center
03:25PM 39.0839 -78.6989 254° West 393 452 34,000  Level Washington Center
03:26PM 39.0483 -78.8578 254° West 393 452 34,000  Level Washington Center
03:27PM 39.0197 -78.9928 255° West 393 452 34,000  Level Washington Center
03:28PM 38.9867 -79.1247 252° West 393 452 34,000  Level Washington Center
03:29PM 38.9575 -79.2594 254° West 393 452 34,000  Level Washington Center
03:30PM 38.9283 -79.3917 254° West 393 452 34,000  Level Washington Center
03:31PM 38.8972 -79.5206 253° West 393 452 34,000  Level Washington Center
03:32PM 38.8697 -79.6553 255° West 393 452 34,000  Level Washington Center
03:33PM 38.8400 -79.7894 254° West 393 452 34,000  Level Washington Center
03:34PM 38.8164 -79.9769 261° West 386 444 34,000  Level Indianapolis Center
03:35PM 38.8078 -80.1142 265° West 386 444 34,000  Level Indianapolis Center
03:37PM 38.7989 -80.2522 265° West 388 447 34,000  Level Indianapolis Center
03:38PM 38.7889 -80.3900 265° West 387 445 34,000  Level Indianapolis Center
03:39PM 38.7775 -80.5533 265° West 383 441 34,000  Level Indianapolis Center
03:40PM 38.7678 -80.6894 265° West 383 441 34,000  Level Indianapolis Center
03:41PM 38.7575 -80.8233 264° West 379 436 34,000  Level Indianapolis Center
03:42PM 38.7483 -80.9558 265° West 375 432 34,000  Level Indianapolis Center
03:43PM 38.7378 -81.0894 264° West 376 433 34,000  Level Indianapolis Center
03:44PM 38.7278 -81.2239 265° West 378 435 34,000  Level Indianapolis Center
03:45PM 38.7175 -81.3567 264° West 375 432 34,000  Level Indianapolis Center
03:46PM 38.7061 -81.4956 264° West 380 437 34,000  Level Indianapolis Center
03:47PM 38.6947 -81.6528 265° West 380 437 34,000  Level Indianapolis Center
03:48PM 38.6836 -81.7778 264° West 386 444 34,000  Level Indianapolis Center
03:49PM 38.6725 -81.9147 264° West 386 444 34,000  Level Indianapolis Center
03:50PM 38.6611 -82.0489 264° West 381 438 34,000  Level Indianapolis Center
03:51PM 38.6494 -82.1858 264° West 384 442 34,000  Level Indianapolis Center
03:52PM 38.6372 -82.3225 264° West 387 445 34,000  Level Indianapolis Center
03:53PM 38.6228 -82.4861 264° West 387 445 34,000  Level Indianapolis Center
03:54PM 38.6119 -82.6081 264° West 391 450 34,000  Level Indianapolis Center
03:55PM 38.5975 -82.7678 263° West 390 449 34,000  Level Indianapolis Center
03:56PM 38.5847 -82.9050 263° West 389 448 34,000  Level Indianapolis Center
03:57PM 38.5719 -83.0397 263° West 384 442 34,000  Level Indianapolis Center
03:58PM 38.5589 -83.1739 263° West 382 440 34,000  Level Indianapolis Center
03:59PM 38.5467 -83.3081 263° West 382 440 34,000  Level Indianapolis Center
04:00PM 38.5344 -83.4400 263° West 377 434 34,000  Level Indianapolis Center
04:01PM 38.5211 -83.5739 263° West 380 437 34,000  Level Indianapolis Center
04:02PM 38.5086 -83.7058 263° West 375 432 34,000  Level Indianapolis Center
04:03PM 38.4922 -83.8617 262° West 380 437 34,000  Level Indianapolis Center
04:04PM 38.4794 -83.9931 263° West 376 433 34,000  Level Indianapolis Center
04:05PM 38.4658 -84.1236 262° West 375 432 34,000  Level Indianapolis Center
04:06PM 38.4522 -84.2544 262° West 373 429 34,000  Level Indianapolis Center
04:07PM 38.4386 -84.3869 263° West 375 432 34,000  Level Indianapolis Center
04:08PM 38.4239 -84.5175 262° West 374 430 34,000  Level Indianapolis Center
04:09PM 38.4114 -84.6483 263° West 372 428 34,000  Level Indianapolis Center
04:10PM 38.3939 -84.7986 262° West 369 425 34,000  Level Indianapolis Center
04:11PM 38.3797 -84.9294 262° West 371 427 34,000  Level Indianapolis Center
04:12PM 38.3664 -85.0572 262° West 368 423 34,000  Level Indianapolis Center
04:13PM 38.3511 -85.1869 261° West 369 425 34,000  Level Indianapolis Center
04:14PM 38.3364 -85.3206 262° West 369 425 34,000  Level Indianapolis Center
04:15PM 38.3228 -85.4503 262° West 368 423 34,000  Level Indianapolis Center
04:16PM 38.3056 -85.5803 260° West 369 425 34,000  Level Indianapolis Center
04:17PM 38.2917 -85.7086 262° West 367 422 34,000  Level Indianapolis Center
04:18PM 38.2772 -85.8389 262° West 368 423 34,000  Level Indianapolis Center
04:20PM 38.2622 -85.9692 262° West 372 428 34,000  Level Indianapolis Center
04:21PM 38.2458 -86.0989 261° West 371 427 34,000  Level Indianapolis Center
04:22PM 38.2306 -86.2264 261° West 364 419 34,000  Level Indianapolis Center
04:23PM 38.2147 -86.3561 261° West 367 422 34,000  Level Indianapolis Center
04:24PM 38.1961 -86.5072 261° West 361 415 34,000  Level Indianapolis Center
04:25PM 38.1808 -86.6333 261° West 358 412 34,000  Level Indianapolis Center
04:26PM 38.1647 -86.7594 261° West 358 412 34,000  Level Indianapolis Center
04:27PM 38.1497 -86.8831 261° West 352 405 34,000  Level Indianapolis Center
04:28PM 38.1325 -87.0078 260° West 352 405 34,000  Level Indianapolis Center
04:29PM 38.1164 -87.1372 261° West 362 417 34,000  Level Indianapolis Center
04:30PM 38.1000 -87.2653 261° West 362 417 34,000  Level Indianapolis Center
04:31PM 38.0836 -87.3908 261° West 358 412 34,000  Level Indianapolis Center
04:32PM 38.0669 -87.5153 260° West 355 409 34,000  Level Indianapolis Center
04:33PM 38.0511 -87.6394 261° West 354 407 34,000  Level Indianapolis Center
04:34PM 38.0333 -87.7650 260° West 358 412 34,000  Level Indianapolis Center
04:35PM 38.0172 -87.8889 261° West 356 410 34,000  Level Indianapolis Center
04:36PM 38.0003 -88.0139 260° West 355 409 34,000  Level Indianapolis Center
04:37PM 37.9817 -88.1394 259° West 360 414 34,000  Level Indianapolis Center
04:38PM 37.9650 -88.2650 260° West 359 413 34,000  Level Indianapolis Center
04:39PM 37.9481 -88.3900 260° West 360 414 34,000  Level Kansas City Center
04:40PM 37.9258 -88.5411 259° West 361 415 34,000  Level Kansas City Center
04:41PM 37.9089 -88.6681 260° West 363 418 34,000  Level Kansas City Center
04:42PM 37.8900 -88.7961 259° West 365 420 34,000  Level Kansas City Center
04:43PM 37.8708 -88.9217 259° West 365 420 34,000 60 Level Kansas City Center
04:44PM 37.8514 -89.0578 260° West 363 418 34,200 660 Climbing Kansas City Center
04:45PM 37.8333 -89.1789 259° West 355 409 35,400 840 Climbing Kansas City Center
04:46PM 37.8175 -89.2897 260° West 348 400 36,000 240 Climbing Kansas City Center
04:47PM 37.8008 -89.4061 260° West 346 398 36,000  Level Kansas City Center
04:48PM 37.7767 -89.5533 258° West 352 405 36,000  Level Kansas City Center
04:49PM 37.7583 -89.6772 259° West 355 409 36,000  Level Kansas City Center
04:50PM 37.7406 -89.8006 260° West 357 411 36,000  Level Kansas City Center
04:51PM 37.7214 -89.9239 259° West 357 411 36,000  Level Kansas City Center
04:52PM 37.7008 -90.0486 258° West 358 412 36,000  Level Kansas City Center
04:53PM 37.6819 -90.1733 259° West 360 414 36,000  Level Kansas City Center
04:54PM 37.6633 -90.3228 261° West 360 414 36,000  Level Kansas City Center
04:56PM 37.6531 -90.4469 264° West 358 412 36,000  Level Kansas City Center
04:57PM 37.6414 -90.5708 263° West 356 410 36,000  Level Kansas City Center
04:58PM 37.6297 -90.6961 263° West 358 412 36,000  Level Kansas City Center
04:59PM 37.6175 -90.8303 263° West 354 407 36,000  Level Kansas City Center
05:00PM 37.6044 -90.9614 263° West 354 407 36,000  Level Kansas City Center
05:01PM 37.5939 -91.0781 264° West 355 409 36,000  Level Kansas City Center
05:02PM 37.5808 -91.2006 262° West 354 407 36,000  Level Kansas City Center
05:03PM 37.5700 -91.3219 264° West 349 402 36,000  Level Kansas City Center
05:04PM 37.5550 -91.4692 263° West 351 404 36,000  Level Kansas City Center
05:05PM 37.5419 -91.5903 262° West 348 400 36,000  Level Kansas City Center
05:06PM 37.5311 -91.7117 264° West 348 400 36,000  Level Kansas City Center
05:07PM 37.5189 -91.8317 263° West 345 397 36,000  Level Kansas City Center
05:08PM 37.5058 -91.9508 262° West 343 395 36,000  Level Kansas City Center
05:09PM 37.4936 -92.0703 263° West 342 394 36,000  Level Kansas City Center
05:10PM 37.4817 -92.1917 263° West 343 395 36,000  Level Kansas City Center
05:11PM 37.4692 -92.3131 263° West 347 399 36,000  Level Kansas City Center
05:12PM 37.4531 -92.4589 262° West 347 399 36,000  Level Kansas City Center
05:13PM 37.4397 -92.5800 262° West 347 399 36,000  Level Kansas City Center
05:14PM 37.4272 -92.7008 263° West 346 398 36,000  Level Kansas City Center
05:15PM 37.4144 -92.8211 262° West 346 398 36,000  Level Kansas City Center
05:16PM 37.4003 -92.9411 262° West 345 397 36,000  Level Kansas City Center
05:17PM 37.3864 -93.0617 262° West 346 398 36,000  Level Kansas City Center
05:18PM 37.3731 -93.1814 262° West 346 398 36,000  Level Kansas City Center
05:19PM 37.3592 -93.3008 262° West 344 396 36,000  Level Kansas City Center
05:20PM 37.3672 -93.4442 274° West 345 397 36,000  Level Kansas City Center
05:21PM 37.3806 -93.5642 278° West 343 395 36,000  Level Kansas City Center
05:22PM 37.3947 -93.6831 279° West 342 394 36,000  Level Kansas City Center
05:23PM 37.4072 -93.8017 278° West 342 394 36,000  Level Kansas City Center
05:24PM 37.4189 -93.9208 277° West 342 394 36,000  Level Kansas City Center
05:26PM 37.4314 -94.0419 277° West 346 398 36,000  Level Kansas City Center
05:27PM 37.4461 -94.1833 278° West 346 398 36,000  Level Kansas City Center
05:28PM 37.4592 -94.3031 278° West 347 399 36,000  Level Kansas City Center
05:29PM 37.4731 -94.4247 278° West 348 400 36,000  Level Kansas City Center
05:30PM 37.5169 -94.5347 297° West 352 405 36,000  Level Kansas City Center
05:31PM 37.5786 -94.6325 309° West 361 415 36,000  Level Kansas City Center
05:32PM 37.6661 -94.7083 326° Northwest 378 435 36,000  Level Kansas City Center
05:33PM 37.7372 -94.8228 308° West 363 418 36,000  Level Kansas City Center
05:34PM 37.7414 -94.9369 273° West 343 395 36,000  Level Kansas City Center
05:35PM 37.7433 -95.0733 271° West 345 397 36,000  Level Kansas City Center
05:36PM 37.7444 -95.1892 271° West 345 397 36,000  Level Kansas City Center
05:37PM 37.7453 -95.3117 271° West 346 398 36,000  Level Kansas City Center
05:38PM 37.7467 -95.4347 271° West 348 400 36,000  Level Kansas City Center
05:39PM 37.7478 -95.5842 271° West 353 406 36,000  Level Kansas City Center
05:40PM 37.7483 -95.7069 270° West 351 404 36,000  Level Kansas City Center
05:41PM 37.7497 -95.8322 271° West 355 409 36,000  Level Kansas City Center
05:42PM 37.7494 -95.9564 270° West 355 409 36,000  Level Kansas City Center
05:43PM 37.7503 -96.0789 271° West 351 404 36,000  Level Kansas City Center
05:44PM 37.7506 -96.2011 270° West 347 399 36,000  Level Kansas City Center
05:45PM 37.7508 -96.3236 270° West 349 402 36,000  Level Kansas City Center
05:46PM 37.7511 -96.4464 270° West 350 403 36,000  Level Kansas City Center
05:47PM 37.7514 -96.5944 270° West 351 404 36,000  Level Kansas City Center
05:48PM 37.7506 -96.7194 270° West 355 409 36,000  Level Kansas City Center
05:49PM 37.7500 -96.8456 270° West 358 412 36,000  Level Kansas City Center
05:50PM 37.7497 -96.9706 270° West 358 412 36,000  Level Kansas City Center
05:51PM 37.7489 -97.0969 270° West 360 414 36,000  Level Kansas City Center
05:52PM 37.7481 -97.2244 270° West 362 417 36,000  Level Kansas City Center
05:53PM 37.7475 -97.3747 270° West 358 412 36,000  Level Kansas City Center
05:54PM 37.7456 -97.4950 269° West 359 413 36,000  Level Kansas City Center
05:56PM 37.7467 -97.6208 271° West 359 413 36,000  Level Kansas City Center
05:57PM 37.7561 -97.7472 275° West 361 415 36,000  Level Kansas City Center
05:58PM 37.7664 -97.8994 275° West 362 417 36,000  Level Kansas City Center
06:00PM 37.7828 -98.1403 275° West 361 415 36,000  Level Kansas City Center
06:01PM 37.7906 -98.2675 274° West 361 415 36,000  Level Kansas City Center
06:02PM 37.7989 -98.3950 275° West 363 418 36,000  Level Kansas City Center
06:03PM 37.8089 -98.5489 275° West 365 420 36,000  Level Kansas City Center
06:04PM 37.8158 -98.6761 274° West 364 419 36,000  Level Kansas City Center
06:05PM 37.8239 -98.8028 275° West 362 417 36,000  Level Kansas City Center
06:06PM 37.8300 -98.9264 274° West 356 410 36,000  Level Kansas City Center
06:07PM 37.8369 -99.0514 274° West 356 410 36,000  Level Kansas City Center
06:08PM 37.8439 -99.1783 274° West 359 413 36,000  Level Kansas City Center
06:09PM 37.8528 -99.3281 274° West 358 412 36,000  Level Kansas City Center
06:10PM 37.8597 -99.4547 274° West 361 415 36,000  Level Kansas City Center
06:11PM 37.8658 -99.5761 274° West 364 419 36,000  Level Kansas City Center
06:12PM 37.8733 -99.7194 274° West 366 421 36,000  Level Kansas City Center
06:13PM 37.8775 -99.8433 272° West 368 423 36,000  Level Kansas City Center
06:14PM 37.8311 -99.9772 246° West 375 432 36,000  Level Kansas City Center
06:15PM 37.7844 -100.0911 243° Southwest 378 435 36,000  Level Kansas City Center
06:16PM 37.7306 -100.2203 242° Southwest 373 429 36,000  Level Kansas City Center
06:17PM 37.6858 -100.3319 243° Southwest 372 428 36,000  Level Kansas City Center
06:18PM 37.6328 -100.4625 243° Southwest 373 429 36,000  Level Kansas City Center
06:19PM 37.5869 -100.5811 244° Southwest 375 432 36,000  Level Kansas City Center
06:20PM 37.5406 -100.7000 244° Southwest 378 435 36,000  Level Kansas City Center
06:21PM 37.4969 -100.8292 247° West 387 445 36,000  Level Kansas City Center
06:22PM 37.5056 -100.9522 275° West 380 437 36,000  Level Kansas City Center
06:23PM 37.5189 -101.0847 277° West 381 438 36,000  Level Kansas City Center
06:24PM 37.5342 -101.2347 277° West 382 440 36,000  Level Kansas City Center
06:25PM 37.5467 -101.3617 277° West 381 438 36,000  Level Kansas City Center
06:26PM 37.5617 -101.5089 277° West 379 436 36,000  Level Kansas City Center
06:28PM 37.5750 -101.6361 278° West 382 440 36,000  Level Kansas City Center
06:29PM 37.5886 -101.7844 277° West 381 438 36,000  Level Kansas City Center
06:30PM 37.6006 -101.9106 277° West 379 436 36,000  Level Kansas City Center
06:31PM 37.6136 -102.0567 276° West 377 434 36,000  Level Kansas City Center
06:32PM 37.6247 -102.1814 276° West 376 433 36,000  Level Kansas City Center
06:33PM 37.6381 -102.3300 277° West 380 437 36,000  Level Denver Center
06:34PM 37.6522 -102.4769 277° West 380 437 36,000  Level Denver Center
06:35PM 37.6622 -102.6114 275° West 379 436 36,000  Level Denver Center
06:36PM 37.6733 -102.7378 276° West 379 436 36,000  Level Denver Center
06:37PM 37.6842 -102.8642 276° West 378 435 36,000 180 Level Denver Center
06:38PM 37.6975 -103.0125 277° West 383 441 36,400 480 Climbing Denver Center
06:39PM 37.7078 -103.1364 276° West 372 428 37,000 240 Climbing Denver Center
06:40PM 37.7194 -103.2828 276° West 375 432 37,000  Level Denver Center
06:41PM 37.7297 -103.4092 276° West 378 435 37,000  Level Denver Center
06:42PM 37.7419 -103.5578 276° West 383 441 37,100 480 Climbing Denver Center
06:43PM 37.7528 -103.6831 276° West 378 435 38,000 420 Climbing Denver Center
06:44PM 37.7642 -103.8286 276° West 376 433 38,000  Level Denver Center
06:45PM 37.7739 -103.9533 276° West 377 434 38,000  Level Denver Center
06:46PM 37.7833 -104.0989 275° West 377 434 38,000  Level Denver Center
06:47PM 37.7936 -104.2250 276° West 379 436 38,000  Level Denver Center
06:48PM 37.8039 -104.3739 275° West 382 440 38,000  Level Denver Center
06:49PM 37.8125 -104.5014 275° West 382 440 38,000  Level Denver Center
06:50PM 37.8219 -104.6275 275° West 378 435 38,000  Level Denver Center
06:51PM 37.8319 -104.7767 275° West 382 440 38,000  Level Denver Center
06:52PM 37.8414 -104.9019 275° West 377 434 38,000  Level Denver Center
06:53PM 37.8508 -105.0500 275° West 377 434 38,000  Level Denver Center
06:54PM 37.8586 -105.1764 274° West 378 435 38,000  Level Denver Center
06:55PM 37.8683 -105.3242 275° West 378 435 38,000  Level Denver Center
06:56PM 37.8764 -105.4525 275° West 380 437 38,000  Level Denver Center
06:57PM 37.8844 -105.5808 275° West 383 441 38,000  Level Denver Center
06:58PM 37.8933 -105.7308 274° West 383 441 38,000  Level Denver Center
07:00PM 37.9006 -105.8583 274° West 381 438 38,000  Level Denver Center
07:01PM 37.9106 -106.0094 275° West 386 444 38,000  Level Denver Center
07:02PM 37.9175 -106.1392 274° West 386 444 38,000  Level Denver Center
07:03PM 37.9250 -106.2908 274° West 387 445 38,000  Level Denver Center
07:04PM 37.9325 -106.4200 274° West 386 444 38,000  Level Denver Center
07:05PM 37.9403 -106.5542 274° West 386 444 38,000  Level Denver Center
07:06PM 37.9469 -106.7044 273° West 385 443 38,000  Level Denver Center
07:07PM 37.9550 -106.8319 275° West 381 438 38,000  Level Denver Center
07:08PM 37.9614 -106.9833 273° West 385 443 38,000  Level Denver Center
07:09PM 37.9675 -107.1103 274° West 380 437 38,000  Level Denver Center
07:10PM 37.9753 -107.2439 274° West 383 441 38,000  Level Denver Center
07:11PM 37.9819 -107.3944 273° West 383 441 38,000  Level Denver Center
07:12PM 37.9875 -107.5231 273° West 382 440 38,000  Level Denver Center
07:13PM 37.9933 -107.6522 273° West 383 441 38,000  Level Denver Center
07:14PM 37.9992 -107.8044 273° West 388 447 38,000  Level Denver Center
07:15PM 38.0050 -107.9319 273° West 382 440 38,000  Level Denver Center
07:16PM 38.0117 -108.0833 273° West 383 441 38,000  Level Denver Center
07:17PM 38.0164 -108.2108 273° West 382 440 38,000  Level Denver Center
07:18PM 38.0219 -108.3600 273° West 379 436 38,000  Level Denver Center
07:19PM 38.0269 -108.4881 273° West 379 436 38,000  Level Denver Center
07:20PM 38.0328 -108.6342 273° West 376 433 38,000  Level Denver Center
07:21PM 38.0364 -108.7589 272° West 373 429 38,000  Level Denver Center
07:22PM 38.0411 -108.8875 273° West 375 432 38,000  Level Denver Center
07:23PM 38.0469 -109.0358 273° West 377 434 38,000  Level Denver Center
07:24PM 38.0514 -109.2083 272° West 383 441 38,000  Level Denver Center
07:25PM 38.0547 -109.3347 272° West 378 435 38,000  Level Denver Center
07:26PM 38.0589 -109.4642 272° West 381 438 38,000  Level Denver Center
07:27PM 38.0628 -109.6142 272° West 381 438 38,000  Level Denver Center
07:28PM 38.0658 -109.7439 272° West 382 440 38,000  Level Denver Center
07:30PM 38.0706 -109.8964 272° West 386 444 38,000  Level Denver Center
07:31PM 38.0733 -110.0297 272° West 392 451 38,000  Level Denver Center
07:32PM 38.0764 -110.1586 272° West 386 444 38,000  Level Denver Center
07:33PM 38.0806 -110.3106 272° West 387 445 38,000  Level Denver Center
07:34PM 38.0819 -110.4408 271° West 386 444 38,000  Level Denver Center
07:35PM 38.0856 -110.5914 272° West 383 441 38,000  Level Denver Center
07:36PM 38.0886 -110.7192 272° West 379 436 38,000  Level Denver Center
07:37PM 38.0897 -110.8458 271° West 375 432 38,000  Level Denver Center
07:38PM 38.0931 -110.9964 272° West 374 430 38,000  Level Denver Center
07:39PM 38.0942 -111.1283 271° West 375 432 38,000  Level Denver Center
07:40PM 38.0961 -111.2625 271° West 381 438 38,000  Level Denver Center
07:41PM 38.0986 -111.3947 271° West 377 434 38,000  Level Denver Center
07:42PM 38.1003 -111.5292 271° West 381 438 38,000  Level Denver Center
07:43PM 38.1011 -111.7153 270° West 379 436 38,000  Level Salt Lake Center
07:44PM 38.1031 -111.8503 271° West 383 441 38,000  Level Salt Lake Center
07:45PM 38.1044 -111.9842 271° West 382 440 38,000  Level Salt Lake Center
07:46PM 38.1056 -112.1181 271° West 381 438 38,000  Level Salt Lake Center
07:47PM 38.1061 -112.2547 270° West 386 444 38,000  Level Salt Lake Center
07:48PM 38.1075 -112.4167 271° West 385 443 38,000  Level Salt Lake Center
07:49PM 38.1078 -112.5497 270° West 382 440 38,000  Level Salt Lake Center
07:50PM 38.1083 -112.6822 270° West 379 436 38,000  Level Salt Lake Center
07:51PM 38.1072 -112.8158 269° West 380 437 38,000  Level Salt Lake Center
07:52PM 38.1086 -112.9492 271° West 381 438 38,000  Level Salt Lake Center
07:53PM 38.1072 -113.0831 269° West 382 440 38,000  Level Salt Lake Center
07:54PM 38.1067 -113.2431 270° West 381 438 38,000  Level Salt Lake Center
07:55PM 38.1058 -113.3767 270° West 381 438 38,000  Level Salt Lake Center
07:57PM 38.1058 -113.5108 270° West 382 440 38,000  Level Salt Lake Center
07:58PM 38.1044 -113.6447 269° West 381 438 38,000  Level Salt Lake Center
07:59PM 38.1039 -113.7783 270° West 382 440 38,000  Level Salt Lake Center
08:00PM 38.1028 -113.9136 269° West 383 441 38,000  Level Salt Lake Center
08:01PM 38.1006 -114.0492 269° West 385 443 38,000  Level Salt Lake Center
08:02PM 38.0994 -114.2131 270° West 388 447 38,000  Level Salt Lake Center
08:03PM 38.0975 -114.3494 269° West 388 447 38,000  Level Salt Lake Center
08:04PM 38.0958 -114.4864 269° West 389 448 38,000  Level Salt Lake Center
08:05PM 38.0944 -114.6228 269° West 389 448 38,000  Level Salt Lake Center
08:06PM 38.0925 -114.7617 269° West 393 452 38,000  Level Salt Lake Center
08:07PM 38.0883 -114.8992 268° West 394 453 38,000  Level Salt Lake Center
08:08PM 38.0867 -115.0500 269° West 397 457 38,000  Level Salt Lake Center
08:09PM 38.0833 -115.1903 268° West 397 457 38,000  Level Salt Lake Center
08:10PM 38.0797 -115.3303 268° West 398 458 38,000  Level Salt Lake Center
08:11PM 38.0747 -115.4708 267° West 398 458 38,000  Level Salt Lake Center
08:12PM 38.0725 -115.6114 269° West 398 458 38,000  Level Salt Lake Center
08:13PM 38.0686 -115.7519 268° West 398 458 38,000  Level Salt Lake Center
08:14PM 38.0647 -115.9203 268° West 399 459 38,000  Level Salt Lake Center
08:15PM 38.0606 -116.0628 268° West 401 461 38,000  Level Salt Lake Center
08:16PM 38.0564 -116.2031 268° West 400 460 38,000  Level Salt Lake Center
08:17PM 38.0531 -116.3450 268° West 401 461 38,000  Level Salt Lake Center
08:18PM 38.0489 -116.4872 268° West 402 463 38,000  Level Salt Lake Center
08:19PM 38.0453 -116.6306 268° West 405 466 38,000  Level Salt Lake Center
08:20PM 38.0406 -116.7733 268° West 405 466 38,000  Level Salt Lake Center
08:21PM 38.0358 -116.9164 268° West 404 465 38,000  Level Salt Lake Center
08:22PM 38.0306 -117.0600 267° West 404 465 38,000  Level Salt Lake Center
08:23PM 38.0256 -117.2061 268° West 404 465 38,000  Level Salt Lake Center
08:24PM 38.0192 -117.3536 267° West 409 471 38,000  Level Salt Lake Center
08:25PM 38.0139 -117.4989 267° West 408 470 38,000  Level Salt Lake Center
08:26PM 38.0083 -117.6431 267° West 409 471 38,000  Level Salt Lake Center
08:27PM 37.9997 -117.8153 266° West 408 470 38,000  Level Salt Lake Center
08:28PM 37.9842 -117.9586 262° West 410 472 38,000  Level Salt Lake Center
08:29PM 37.9683 -118.1011 262° West 408 470 38,000  Level Salt Lake Center
08:30PM 37.9492 -118.2725 262° West 408 470 38,000  Level Oakland Center
08:31PM 37.9342 -118.4122 262° West 403 464 38,000  Level Oakland Center
08:32PM 37.9181 -118.5531 262° West 403 464 38,000  Level Oakland Center
08:34PM 37.9028 -118.6919 262° West 400 460 38,000  Level Oakland Center
08:35PM 37.8881 -118.8328 262° West 401 461 38,000  Level Oakland Center
08:36PM 37.8717 -118.9725 262° West 403 464 38,000  Level Oakland Center
08:37PM 37.8556 -119.1150 262° West 406 467 38,000  Level Oakland Center
08:38PM 37.8386 -119.2575 261° West 410 472 38,000  Level Oakland Center
08:39PM 37.8228 -119.3989 262° West 408 470 38,000  Level Oakland Center
08:40PM 37.8061 -119.5381 261° West 401 461 38,000  Level Oakland Center
08:41PM 37.7900 -119.6783 262° West 402 463 38,000 -540 Level Oakland Center
08:42PM 37.7717 -119.8186 261° West 403 464 37,000 -960 Descending Oakland Center
08:43PM 37.7542 -119.9603 261° West 408 470 36,100 -1,140 Descending Oakland Center
08:44PM 37.7358 -120.1061 261° West 416 479 34,700 -2,280 Descending Oakland Center
08:45PM 37.7144 -120.2786 261° West 415 478 31,500 -2,700 Descending Oakland Center
08:46PM 37.6972 -120.4189 261° West 407 468 29,300 -2,220 Descending Oakland Center
08:47PM 37.6797 -120.5553 261° West 396 456 27,100 -2,280 Descending Oakland Center
08:48PM 37.6619 -120.6947 261° West 387 445 24,700 -2,160 Descending Oakland Center
08:49PM 37.6453 -120.8194 260° West 379 436 22,800 -1,920 Descending Oakland Center
08:50PM 37.6297 -120.9425 261° West 359 413 20,900 -1,980 Descending Oakland Center
08:50PM 37.6167 -121.0167 257° West 350 403 19,800 -1,920 Descending Northern Cal TRACON
08:51PM 37.6167 -121.1167 270° West 341 392 18,200 -1,800 Descending Northern Cal TRACON
08:52PM 37.6000 -121.2333 260° West 345 397 16,300 -1,920 Descending Northern Cal TRACON
08:53PM 37.5833 -121.3500 260° West 344 396 14,400 -1,980 Descending Northern Cal TRACON
08:54PM 37.5667 -121.4833 261° West 343 395 12,400 -1,680 Descending Northern Cal TRACON
08:55PM 37.5500 -121.5833 258° West 332 382 11,100 -1,140 Descending Northern Cal TRACON
08:56PM 37.5333 -121.7000 260° West 303 349 10,200 -1,200 Descending Northern Cal TRACON
08:57PM 37.5167 -121.8000 258° West 298 343 8,800 -1,320 Descending Northern Cal TRACON
08:58PM 37.5000 -121.8833 256° West 288 331 7,700 -1,260 Descending Northern Cal TRACON
08:59PM 37.4667 -121.9833 247° West 284 327 6,300 -1,440 Descending Northern Cal TRACON
09:00PM 37.5000 -122.0667 297° West 269 310 4,900 -1,320 Descending Northern Cal TRACON
09:01PM 37.5167 -122.1500 284° West 256 295 3,700 -1,260 Descending Northern Cal TRACON
09:02PM 37.5500 -122.2167 302° West 228 262 2,400 -1,200 Descending Northern Cal TRACON
09:03PM 37.5833 -122.2833 302° West 187 215 1,400 -960 Descending Northern Cal TRACON
09:04PM 37.5958 -122.3181 294° West 194 223 700 -660 Descending Oakland Center
09:05PM 37.6172 -122.3689 298° West 175 201 200 -540 Descending Oakland Center
09:07PM 37.6167 -122.3667 322° Northwest  Level FlightAware Approximate